Time;durP1;ratioP1;P1;durP2;ratioP2;P2;SDS_P1;SDS_P2;PMS_P1;PMS_P2;Temp;Humidity;BMP_temperature;BMP_pressure;BME280_temperature;BME280_humidity;BME280_pressure;Samples;Min_cycle;Max_cycle;Signal;HPM_P1;HPM_P2
2023/08/21 00:01:57;;;;;;;;;;;;;;;25.07;49.96;100935.41;7395420;19;1234;-46
2023/08/21 00:04:25;;;;;;;;;;;;;;;25.05;50.11;100942.84;7400613;19;1405;-44
2023/08/21 00:06:53;;;;;;;;;;;;;;;25.01;49.97;100928.81;7400034;19;1386;-45
2023/08/21 00:09:22;;;;;;;;;;;;;;;25.11;49.97;100931.34;7398910;19;1847;-45
2023/08/21 00:11:50;;;;;;;;;;;;;;;25.04;53.99;100941.13;7400378;19;1305;-45
2023/08/21 00:14:18;;;;;;;;;;;;;;;25.01;51.92;100945.03;7400101;19;1225;-45
2023/08/21 00:16:46;;;;;;;;;;;;;;;25.00;53.90;100940.63;7399778;19;1454;-45
2023/08/21 00:19:17;;;;;;;;;;;;;;;24.98;53.30;100936.41;7399890;19;1456;-45
2023/08/21 00:21:45;;;;;;;;;;;;;;;24.96;51.86;100928.47;7399741;19;1087;-46
2023/08/21 00:24:14;;;;;;;;;;;;;;;24.99;50.94;100933.56;7398256;19;1409;-45
2023/08/21 00:26:42;;;;;;;;;;;;;;;25.00;50.54;100935.22;7399294;19;1222;-45
2023/08/21 00:29:10;;;;;;;;;;;;;;;25.09;50.69;100946.03;7397682;19;1857;-45
2023/08/21 00:31:39;;;;;;;;;;;;;;;25.04;53.62;100948.41;7398163;19;1280;-45
2023/08/21 00:34:07;;;;;;;;;;;;;;;24.97;53.64;100946.41;7397257;19;1272;-44
2023/08/21 00:36:38;;;;;;;;;;;;;;;24.95;51.42;100953.84;7398502;19;1453;-46
2023/08/21 00:39:06;;;;;;;;;;;;;;;25.01;51.38;100947.75;7397298;19;1397;-45
2023/08/21 00:41:34;;;;;;;;;;;;;;;24.99;51.16;100955.19;7398521;19;1414;-45
2023/08/21 00:44:03;;;;;;;;;;;;;;;24.99;50.06;100947.06;7398195;19;1225;-45
2023/08/21 00:46:32;;;;;;;;;;;;;;;25.03;50.30;100934.06;7398726;19;1250;-46
2023/08/21 00:49:01;;;;;;;;;;;;;;;24.95;50.26;100953.84;7398881;19;1253;-46
2023/08/21 00:51:29;;;;;;;;;;;;;;;25.07;50.32;100950.78;7396648;19;1862;-44
2023/08/21 00:54:00;;;;;;;;;;;;;;;24.99;50.09;100944.38;7397584;19;1455;-46
2023/08/21 00:56:28;;;;;;;;;;;;;;;25.02;49.84;100957.53;7397220;19;1250;-44
2023/08/21 00:58:57;;;;;;;;;;;;;;;25.05;49.74;100959.09;7398116;19;1449;-45
2023/08/21 01:01:26;;;;;;;;;;;;;;;25.06;49.72;100960.75;7397221;19;1313;-46
2023/08/21 01:03:54;;;;;;;;;;;;;;;25.07;49.67;100969.72;7398231;19;1441;-46
2023/08/21 01:06:23;;;;;;;;;;;;;;;24.99;49.76;100966.00;7397618;19;1544;-46
2023/08/21 01:08:55;;;;;;;;;;;;;;;25.01;50.05;100980.22;7397278;19;1366;-45
2023/08/21 01:11:28;;;;;;;;;;;;;;;25.04;50.19;100961.94;7396534;19;1843;-46
2023/08/21 01:14:00;;;;;;;;;;;;;;;24.99;49.90;100967.88;7397480;19;1933;-46
2023/08/21 01:16:29;;;;;;;;;;;;;;;25.06;50.02;100978.84;7397841;19;1479;-45
2023/08/21 01:18:57;;;;;;;;;;;;;;;25.00;51.49;100974.97;7397546;19;1564;-46
2023/08/21 01:21:26;;;;;;;;;;;;;;;24.96;50.54;100963.63;7398177;19;1234;-45
2023/08/21 01:23:57;;;;;;;;;;;;;;;24.97;50.97;100973.47;7396461;19;1383;-46
2023/08/21 01:26:25;;;;;;;;;;;;;;;24.97;51.70;100961.81;7397695;19;1174;-46
2023/08/21 01:28:53;;;;;;;;;;;;;;;24.91;51.08;100957.91;7396063;19;1331;-45
2023/08/21 01:31:24;;;;;;;;;;;;;;;24.95;51.29;100969.25;7395327;19;1866;-49
2023/08/21 01:33:54;;;;;;;;;;;;;;;24.93;50.73;100966.69;7397042;19;1474;-47
2023/08/21 01:36:22;;;;;;;;;;;;;;;24.94;50.20;100965.66;7396620;19;1206;-46
2023/08/21 01:38:51;;;;;;;;;;;;;;;24.96;50.01;100979.03;7395145;19;1218;-45
2023/08/21 01:41:22;;;;;;;;;;;;;;;24.93;49.67;100972.13;7396814;19;1342;-45
2023/08/21 01:43:51;;;;;;;;;;;;;;;24.95;49.48;100970.09;7396073;19;1347;-46
2023/08/21 01:46:19;;;;;;;;;;;;;;;24.91;49.42;100965.16;7397458;19;1194;-45
2023/08/21 01:48:48;;;;;;;;;;;;;;;24.93;49.67;100969.41;7395044;19;1298;-45
2023/08/21 01:51:16;;;;;;;;;;;;;;;24.92;49.64;100983.94;7395132;19;1857;-45
2023/08/21 01:53:44;;;;;;;;;;;;;;;24.93;49.36;100964.00;7395574;19;1239;-45
2023/08/21 01:56:13;;;;;;;;;;;;;;;24.96;49.71;100960.94;7395947;19;1605;-45
2023/08/21 01:58:44;;;;;;;;;;;;;;;24.89;49.33;100953.66;7396290;19;1355;-45
2023/08/21 02:01:12;;;;;;;;;;;;;;;24.94;49.27;100964.84;7397315;19;1389;-46
2023/08/21 02:03:40;;;;;;;;;;;;;;;24.90;49.50;100964.31;7396362;19;1190;-46
2023/08/21 02:06:09;;;;;;;;;;;;;;;24.89;49.38;100946.41;7396378;19;1186;-46
2023/08/21 02:08:37;;;;;;;;;;;;;;;24.86;49.35;100954.84;7395380;19;1147;-45
2023/08/21 02:11:05;;;;;;;;;;;;;;;24.91;49.57;100974.13;7395456;19;1861;-45
2023/08/21 02:13:34;;;;;;;;;;;;;;;24.93;49.74;100955.00;7395159;19;1342;-45
2023/08/21 02:16:05;;;;;;;;;;;;;;;24.88;50.37;100963.66;7395577;19;1457;-45
2023/08/21 02:18:33;;;;;;;;;;;;;;;24.84;51.97;100970.41;7395525;19;1250;-45
2023/08/21 02:21:03;;;;;;;;;;;;;;;24.82;50.72;100985.97;7396434;19;1312;-45
2023/08/21 02:23:31;;;;;;;;;;;;;;;24.83;50.33;100966.03;7403135;19;1454;-45
2023/08/21 02:25:59;;;;;;;;;;;;;;;24.84;50.34;100954.19;7403051;19;1253;-45
2023/08/21 02:28:28;;;;;;;;;;;;;;;24.86;50.08;100981.91;7402442;19;1209;-46
2023/08/21 02:30:56;;;;;;;;;;;;;;;24.91;50.18;100963.31;7400628;19;1854;-45
2023/08/21 02:33:27;;;;;;;;;;;;;;;24.93;49.93;100985.63;7402147;19;1328;-45
2023/08/21 02:35:55;;;;;;;;;;;;;;;24.87;49.73;100956.56;7402376;19;1252;-45
2023/08/21 02:38:23;;;;;;;;;;;;;;;24.86;49.66;100984.59;7402219;19;1413;-45
2023/08/21 02:40:51;;;;;;;;;;;;;;;24.86;49.66;100971.09;7402819;19;1261;-45
2023/08/21 02:43:20;;;;;;;;;;;;;;;24.87;49.71;100971.91;7402376;19;1281;-45
2023/08/21 02:45:48;;;;;;;;;;;;;;;24.78;49.66;100979.19;7401596;19;1254;-46
2023/08/21 02:48:17;;;;;;;;;;;;;;;24.83;49.73;100982.25;7401342;19;1206;-45
2023/08/21 02:50:48;;;;;;;;;;;;;;;24.87;49.72;100972.78;7400265;19;1907;-46
2023/08/21 02:53:16;;;;;;;;;;;;;;;24.78;50.13;100971.09;7401816;19;1383;-46
2023/08/21 02:55:44;;;;;;;;;;;;;;;24.77;50.37;100974.78;7400582;19;1588;-44
2023/08/21 02:58:12;;;;;;;;;;;;;;;24.78;50.84;100990.03;7401682;19;1254;-46
2023/08/21 03:00:41;;;;;;;;;;;;;;;24.77;50.76;100981.06;7400904;19;1283;-45
2023/08/21 03:03:06;;;;;;;;;;;;;;;24.79;50.42;100972.78;7401309;19;1277;-45
2023/08/21 03:05:34;;;;;;;;;;;;;;;24.80;49.76;100975.31;7400111;19;1240;-45
2023/08/21 03:08:06;;;;;;;;;;;;;;;24.86;50.06;100981.91;7401730;19;1318;-45
2023/08/21 03:10:34;;;;;;;;;;;;;;;24.68;50.50;100976.66;7399907;19;1845;-45
2023/08/21 03:13:02;;;;;;;;;;;;;;;24.60;50.34;100985.59;7401649;19;1410;-44
2023/08/21 03:15:31;;;;;;;;;;;;;;;24.50;50.48;100993.03;7400725;19;1301;-46
2023/08/21 03:17:59;;;;;;;;;;;;;;;24.50;50.14;100982.22;7401873;19;1340;-46
2023/08/21 03:20:28;;;;;;;;;;;;;;;24.49;49.90;100985.91;7402778;19;1289;-45
2023/08/21 03:22:56;;;;;;;;;;;;;;;24.45;50.28;100987.22;7401882;19;1231;-45
2023/08/21 03:25:27;;;;;;;;;;;;;;;24.53;50.01;100998.13;7401946;19;1190;-47
2023/08/21 03:27:55;;;;;;;;;;;;;;;24.48;50.70;100994.19;7399579;19;1498;-45
2023/08/21 03:30:23;;;;;;;;;;;;;;;24.52;50.70;100985.59;7401679;19;1841;-46
2023/08/21 03:32:52;;;;;;;;;;;;;;;24.51;50.44;100993.88;7400492;19;1398;-45
2023/08/21 03:35:20;;;;;;;;;;;;;;;24.45;50.88;100989.09;7400685;19;1234;-45
2023/08/21 03:37:48;;;;;;;;;;;;;;;24.44;50.76;100982.84;7400060;19;1284;-45
2023/08/21 03:40:16;;;;;;;;;;;;;;;24.43;50.69;101002.78;7400204;19;1315;-46
2023/08/21 03:42:47;;;;;;;;;;;;;;;24.41;50.19;100997.56;7399768;19;1110;-46
2023/08/21 03:45:15;;;;;;;;;;;;;;;24.30;50.15;100980.81;7399868;19;1531;-46
2023/08/21 03:47:44;;;;;;;;;;;;;;;24.28;50.24;100988.25;7399656;19;1276;-45
2023/08/21 03:50:12;;;;;;;;;;;;;;;24.30;50.14;101002.44;7396745;19;1402;-45
2023/08/21 03:52:40;;;;;;;;;;;;;;;24.37;49.83;100988.09;7397052;19;1843;-44
2023/08/21 03:55:09;;;;;;;;;;;;;;;24.35;50.00;100990.13;7399934;19;1153;-45
2023/08/21 03:57:38;;;;;;;;;;;;;;;24.36;50.06;101001.75;7397368;19;1421;-45
2023/08/21 04:00:10;;;;;;;;;;;;;;;24.20;50.50;100998.00;7398812;19;1308;-45
2023/08/21 04:02:38;;;;;;;;;;;;;;;24.33;50.05;100996.69;7399780;19;1210;-45
2023/08/21 04:05:07;;;;;;;;;;;;;;;24.33;50.12;100999.38;7398608;19;1394;-45
2023/08/21 04:07:35;;;;;;;;;;;;;;;24.44;49.46;101007.19;7398823;19;1535;-46
2023/08/21 04:10:03;;;;;;;;;;;;;;;24.42;49.71;100990.28;7398260;19;1410;-46
2023/08/21 04:12:33;;;;;;;;;;;;;;;24.45;49.60;101016.13;7396760;19;1843;-45
2023/08/21 04:15:02;;;;;;;;;;;;;;;24.49;49.85;101012.97;7400156;19;1486;-45
2023/08/21 04:17:33;;;;;;;;;;;;;;;24.58;49.78;101014.66;7397917;19;1304;-45
2023/08/21 04:20:01;;;;;;;;;;;;;;;24.68;49.65;101029.91;7399051;19;1830;-45
2023/08/21 04:22:29;;;;;;;;;;;;;;;24.84;49.13;101015.56;7398536;19;1243;-45
2023/08/21 04:24:57;;;;;;;;;;;;;;;25.23;48.51;101013.03;7397738;19;1869;-46
2023/08/21 04:27:26;;;;;;;;;;;;;;;25.76;47.19;101016.97;7397192;19;1296;-45
2023/08/21 04:29:55;;;;;;;;;;;;;;;26.31;46.06;101025.25;7395325;19;1180;-45
2023/08/21 04:32:24;;;;;;;;;;;;;;;26.75;44.98;101027.38;7397883;19;1851;-46
2023/08/21 04:34:54;;;;;;;;;;;;;;;26.65;45.87;101003.19;7399058;19;1394;-45
2023/08/21 04:37:23;;;;;;;;;;;;;;;26.58;46.22;101013.06;7400052;19;1297;-46
2023/08/21 04:39:52;;;;;;;;;;;;;;;26.13;47.51;101017.38;7396685;19;1405;-45
2023/08/21 04:42:21;;;;;;;;;;;;;;;25.92;48.10;101016.09;7396775;19;1300;-44
2023/08/21 04:44:49;;;;;;;;;;;;;;;25.46;49.83;101031.28;7395136;19;1347;-45
2023/08/21 04:47:28;;;;;;;;;;;;;;;25.57;49.51;101017.38;7396333;19;1376;-46
2023/08/21 04:49:58;;;;;;;;;;;;;;;25.69;49.62;101029.53;7391510;19;1621;-46
2023/08/21 04:52:27;;;;;;;;;;;;;;;25.32;49.18;101030.94;7393575;19;1863;-46
2023/08/21 04:54:56;;;;;;;;;;;;;;;25.15;49.30;101040.09;7393126;19;1814;-46
2023/08/21 04:57:24;;;;;;;;;;;;;;;25.10;49.38;101031.63;7390814;19;1360;-46
2023/08/21 04:59:52;;;;;;;;;;;;;;;25.01;49.32;101039.75;7393481;19;1446;-46
2023/08/21 05:02:21;;;;;;;;;;;;;;;24.97;49.85;101040.25;7393483;19;1405;-46
2023/08/21 05:04:49;;;;;;;;;;;;;;;25.04;49.47;101029.59;7393632;19;1237;-46
2023/08/21 05:07:20;;;;;;;;;;;;;;;24.92;50.04;101035.34;7392550;19;1162;-46
2023/08/21 05:09:48;;;;;;;;;;;;;;;24.92;50.36;101032.63;7393165;19;1742;-46
2023/08/21 05:12:16;;;;;;;;;;;;;;;24.94;50.61;101044.13;7386691;19;1867;-46
2023/08/21 05:14:45;;;;;;;;;;;;;;;25.04;50.40;101037.72;7392519;19;1295;-47
2023/08/21 05:17:13;;;;;;;;;;;;;;;25.05;52.34;101036.69;7393105;19;1527;-46
2023/08/21 05:19:41;;;;;;;;;;;;;;;25.12;53.37;101040.41;7396246;19;1287;-45
2023/08/21 05:22:09;;;;;;;;;;;;;;;25.11;52.73;101044.13;7397849;19;1136;-45
2023/08/21 05:24:40;;;;;;;;;;;;;;;25.14;53.69;101038.38;7395822;19;1236;-45
2023/08/21 05:27:09;;;;;;;;;;;;;;;25.11;54.08;101045.00;7395087;19;1147;-45
2023/08/21 05:29:37;;;;;;;;;;;;;;;25.05;54.14;101033.97;7395977;19;1349;-46
2023/08/21 05:32:05;;;;;;;;;;;;;;;24.82;55.67;101040.06;7396394;19;1864;-46
2023/08/21 05:34:34;;;;;;;;;;;;;;;24.91;56.38;101040.91;7394899;19;1222;-46
2023/08/21 05:37:02;;;;;;;;;;;;;;;24.94;55.88;101049.53;7395615;19;1373;-46
2023/08/21 05:39:30;;;;;;;;;;;;;;;25.06;56.27;101041.94;7393705;19;1939;-46
2023/08/21 05:42:01;;;;;;;;;;;;;;;25.14;56.77;101032.97;7396350;19;1184;-46
2023/08/21 05:44:29;;;;;;;;;;;;;;;25.08;57.50;101039.91;7396128;19;1490;-45
2023/08/21 05:46:58;;;;;;;;;;;;;;;24.95;58.14;101026.88;7394268;19;1281;-46
2023/08/21 05:49:26;;;;;;;;;;;;;;;24.96;58.79;101046.66;7394652;19;1535;-45
2023/08/21 05:51:54;;;;;;;;;;;;;;;24.98;58.03;101044.63;7395501;19;1865;-45
2023/08/21 05:54:22;;;;;;;;;;;;;;;25.14;58.38;101041.09;7396254;19;1417;-46
2023/08/21 05:56:50;;;;;;;;;;;;;;;25.12;58.36;101045.81;7394429;19;1211;-45
2023/08/21 05:59:32;;;;;;;;;;;;;;;25.13;58.45;101036.72;7394255;19;1957;-47
2023/08/21 06:02:01;;;;;;;;;;;;;;;25.26;58.78;101037.03;7389825;19;1583;-46
2023/08/21 06:04:29;;;;;;;;;;;;;;;25.27;59.14;101038.75;7395400;19;1385;-45
2023/08/21 06:06:57;;;;;;;;;;;;;;;25.31;59.27;101031.16;7392539;19;1503;-45
2023/08/21 06:09:26;;;;;;;;;;;;;;;25.44;59.31;101022.47;7395608;19;1377;-46
2023/08/21 06:11:54;;;;;;;;;;;;;;;25.64;58.50;101037.31;7394421;19;1854;-46
2023/08/21 06:14:28;;;;;;;;;;;;;;;25.56;60.01;101021.94;7395530;19;1469;-46
2023/08/21 06:16:59;;;;;;;;;;;;;;;25.55;60.58;101038.38;7392505;19;1349;-46
2023/08/21 06:19:27;;;;;;;;;;;;;;;25.28;55.58;101051.25;7394180;19;1476;-45
2023/08/21 06:21:56;;;;;;;;;;;;;;;25.08;55.16;101037.19;7394962;19;1624;-46
2023/08/21 06:24:24;;;;;;;;;;;;;;;25.10;57.84;101047.84;7393174;19;1580;-46
2023/08/21 06:26:53;;;;;;;;;;;;;;;25.33;58.52;101050.75;7395131;19;1839;-46
2023/08/21 06:29:22;;;;;;;;;;;;;;;25.44;58.18;101053.09;7395805;19;1213;-46
2023/08/21 06:31:50;;;;;;;;;;;;;;;25.33;58.25;101048.91;7392851;19;1840;-46
2023/08/21 06:34:21;;;;;;;;;;;;;;;25.40;58.08;101047.19;7393192;19;1555;-46
2023/08/21 06:36:49;;;;;;;;;;;;;;;25.50;60.19;101054.28;7391459;19;1378;-46
2023/08/21 06:39:17;;;;;;;;;;;;;;;25.46;60.26;101047.53;7391409;19;1426;-46
2023/08/21 06:41:46;;;;;;;;;;;;;;;25.50;61.42;101055.13;7391391;19;1360;-46
2023/08/21 06:44:14;;;;;;;;;;;;;;;25.50;60.67;101065.94;7394303;19;1429;-46
2023/08/21 06:46:42;;;;;;;;;;;;;;;25.47;61.31;101065.47;7391208;19;1423;-46
2023/08/21 06:49:11;;;;;;;;;;;;;;;25.63;60.65;101048.34;7393835;19;1354;-46
2023/08/21 06:51:42;;;;;;;;;;;;;;;25.52;61.26;101052.25;7395921;19;1831;-46
2023/08/21 06:54:10;;;;;;;;;;;;;;;25.69;59.50;101042.25;7394155;19;1515;-46
2023/08/21 06:56:38;;;;;;;;;;;;;;;25.78;62.68;101052.88;7386222;19;1551;-46
2023/08/21 06:59:07;;;;;;;;;;;;;;;25.76;63.39;101060.31;7386674;19;1409;-46
2023/08/21 07:01:35;;;;;;;;;;;;;;;25.32;64.07;101062.59;7387469;19;1368;-45
2023/08/21 07:04:03;;;;;;;;;;;;;;;25.01;62.31;101064.09;7385831;19;1269;-46
2023/08/21 07:06:32;;;;;;;;;;;;;;;24.87;60.72;101053.06;7388618;19;1335;-46
2023/08/21 07:09:04;;;;;;;;;;;;;;;24.76;60.19;101056.97;7393238;19;1473;-46
2023/08/21 07:11:32;;;;;;;;;;;;;;;24.75;59.88;101061.53;7395634;19;1855;-46
2023/08/21 07:14:00;;;;;;;;;;;;;;;24.69;59.30;101055.91;7395440;19;1286;-46
2023/08/21 07:16:29;;;;;;;;;;;;;;;24.76;59.39;101060.50;7392121;19;1350;-45
2023/08/21 07:18:57;;;;;;;;;;;;;;;24.73;57.78;101051.88;7394941;19;1302;-46
2023/08/21 07:21:25;;;;;;;;;;;;;;;24.68;57.80;101038.03;7395341;19;1382;-46
2023/08/21 07:23:55;;;;;;;;;;;;;;;24.69;57.20;101056.78;7398200;19;1299;-46
2023/08/21 07:26:25;;;;;;;;;;;;;;;24.66;56.83;101045.47;7399389;19;1014;-47
2023/08/21 07:28:54;;;;;;;;;;;;;;;24.59;56.29;101040.72;7394577;19;1365;-54
2023/08/21 07:31:22;;;;;;;;;;;;;;;24.57;56.27;101029.22;7397469;19;1774;-46
2023/08/21 07:33:51;;;;;;;;;;;;;;;24.55;55.50;101043.91;7393594;19;1866;-46
2023/08/21 07:36:19;;;;;;;;;;;;;;;24.52;55.35;101045.09;7392806;19;1711;-46
2023/08/21 07:38:47;;;;;;;;;;;;;;;24.49;54.50;101050.81;7394347;19;1612;-47
2023/08/21 07:41:16;;;;;;;;;;;;;;;24.54;54.54;101048.47;7393740;19;1288;-46
2023/08/21 07:43:47;;;;;;;;;;;;;;;24.50;54.38;101038.13;7393386;19;1145;-47
2023/08/21 07:46:18;;;;;;;;;;;;;;;24.51;53.81;101031.72;7394482;19;1559;-46
2023/08/21 07:48:46;;;;;;;;;;;;;;;24.48;53.71;101035.56;7393577;19;1399;-46
2023/08/21 07:51:14;;;;;;;;;;;;;;;24.44;53.35;101036.91;7392019;19;1495;-49
2023/08/21 07:53:43;;;;;;;;;;;;;;;24.42;52.77;101042.47;7393321;19;1858;-47
2023/08/21 07:56:11;;;;;;;;;;;;;;;24.42;53.04;101028.13;7392838;19;1666;-46
2023/08/21 07:58:39;;;;;;;;;;;;;;;24.43;52.48;101040.63;7394833;19;1287;-46
2023/08/21 08:01:10;;;;;;;;;;;;;;;24.43;52.63;101040.63;7394410;19;1608;-46
2023/08/21 08:03:38;;;;;;;;;;;;;;;24.40;52.17;101036.41;7394546;19;1243;-46
2023/08/21 08:06:10;;;;;;;;;;;;;;;24.35;51.80;101027.97;7391258;19;2038;-46
2023/08/21 08:08:38;;;;;;;;;;;;;;;24.37;51.88;101033.16;7393450;19;1473;-46
2023/08/21 08:11:07;;;;;;;;;;;;;;;24.38;51.71;101033.00;7393568;19;1458;-46
2023/08/21 08:13:35;;;;;;;;;;;;;;;24.36;51.40;101028.78;7391922;19;1854;-46
2023/08/21 08:16:03;;;;;;;;;;;;;;;24.38;51.21;101037.59;7393235;19;1794;-46
2023/08/21 08:18:34;;;;;;;;;;;;;;;24.33;51.18;101038.09;7391172;19;1310;-45
2023/08/21 08:21:02;;;;;;;;;;;;;;;24.33;51.12;101031.81;7390861;19;1378;-46
2023/08/21 08:23:31;;;;;;;;;;;;;;;24.33;51.03;101037.22;7393295;19;1362;-46
2023/08/21 08:25:59;;;;;;;;;;;;;;;24.31;50.67;101020.31;7393965;19;1482;-46
2023/08/21 08:28:27;;;;;;;;;;;;;;;24.33;50.50;101021.88;7390956;19;1232;-46
2023/08/21 08:30:57;;;;;;;;;;;;;;;24.35;50.36;101010.88;7393183;19;1685;-46
2023/08/21 08:33:25;;;;;;;;;;;;;;;24.31;50.32;101021.19;7389282;19;1845;-46
2023/08/21 08:35:56;;;;;;;;;;;;;;;24.29;49.94;101019.63;7392940;19;1335;-46
2023/08/21 08:38:25;;;;;;;;;;;;;;;24.30;49.94;101019.47;7395476;19;1110;-46
2023/08/21 08:40:53;;;;;;;;;;;;;;;24.32;49.86;101016.63;7391667;19;1561;-46
2023/08/21 08:43:22;;;;;;;;;;;;;;;24.32;49.54;101005.81;7391991;19;1596;-46
2023/08/21 08:45:51;;;;;;;;;;;;;;;24.30;49.47;101008.66;7392509;19;1212;-46
2023/08/21 08:48:20;;;;;;;;;;;;;;;24.29;49.69;100998.03;7392460;19;1792;-46
2023/08/21 08:50:50;;;;;;;;;;;;;;;24.27;49.33;101006.28;7392724;19;1839;-46
2023/08/21 08:53:21;;;;;;;;;;;;;;;24.27;49.39;101011.69;7389107;19;1849;-46
2023/08/21 08:55:49;;;;;;;;;;;;;;;24.26;49.00;101001.06;7391372;19;1353;-45
2023/08/21 08:58:17;;;;;;;;;;;;;;;24.29;48.86;100995.31;7391603;19;1094;-46
2023/08/21 09:00:46;;;;;;;;;;;;;;;24.42;49.14;101007.34;7387146;19;1509;-48
2023/08/21 09:03:15;;;;;;;;;;;;;;;24.65;50.07;100992.38;7391738;19;1331;-46
2023/08/21 09:05:44;;;;;;;;;;;;;;;25.00;49.53;100989.34;7394392;19;1070;-47
2023/08/21 09:08:13;;;;;;;;;;;;;;;25.12;50.16;100975.47;7390709;19;1518;-47
2023/08/21 09:10:45;;;;;;;;;;;;;;;25.20;50.10;100980.88;7390285;19;1774;-47
2023/08/21 09:13:17;;;;;;;;;;;;;;;25.24;50.27;100978.69;7385696;19;1853;-47
2023/08/21 09:15:46;;;;;;;;;;;;;;;25.27;50.47;100984.63;7388450;19;1560;-47
2023/08/21 09:18:15;;;;;;;;;;;;;;;25.36;50.39;100980.03;7392976;19;1389;-47
2023/08/21 09:20:44;;;;;;;;;;;;;;;25.37;50.44;100979.84;7390658;19;1576;-47
2023/08/21 09:23:16;;;;;;;;;;;;;;;25.50;50.20;100968.47;7390062;19;1533;-47
2023/08/21 09:25:48;;;;;;;;;;;;;;;25.57;50.44;100974.91;7389489;19;1000;-47
2023/08/21 09:28:17;;;;;;;;;;;;;;;25.53;50.76;100968.13;7391304;19;1381;-47
2023/08/21 09:30:46;;;;;;;;;;;;;;;25.55;50.72;100962.56;7389613;19;1856;-47
2023/08/21 09:33:15;;;;;;;;;;;;;;;25.56;51.03;100962.34;7390295;19;1842;-47
2023/08/21 09:35:44;;;;;;;;;;;;;;;25.50;51.31;100975.75;7389772;19;1238;-47
2023/08/21 09:38:14;;;;;;;;;;;;;;;25.46;51.63;100960.88;7389466;19;1311;-47
2023/08/21 09:40:43;;;;;;;;;;;;;;;25.49;51.81;100958.69;7389349;19;1338;-47
2023/08/21 09:43:14;;;;;;;;;;;;;;;25.54;51.86;100968.97;7390050;19;1202;-45
2023/08/21 09:45:42;;;;;;;;;;;;;;;25.20;53.55;100951.09;7389701;19;1339;-45
2023/08/21 09:48:11;;;;;;;;;;;;;;;24.83;52.94;100954.34;7389223;19;1110;-46
2023/08/21 09:50:40;;;;;;;;;;;;;;;24.65;52.68;100960.78;7389120;19;1450;-46
2023/08/21 09:53:09;;;;;;;;;;;;;;;24.57;52.28;100956.22;7385821;19;1877;-47
2023/08/21 09:55:37;;;;;;;;;;;;;;;24.54;52.17;100945.72;7389540;19;1384;-46
2023/08/21 09:58:06;;;;;;;;;;;;;;;24.64;52.15;100940.16;7390554;19;1844;-47
2023/08/21 10:00:39;;;;;;;;;;;;;;;24.67;51.68;100953.34;7389321;19;1367;-46
2023/08/21 10:03:10;;;;;;;;;;;;;;;24.69;51.39;100966.69;7388544;19;1335;-47
2023/08/21 10:05:39;;;;;;;;;;;;;;;24.73;51.25;100954.50;7391240;19;1427;-47
2023/08/21 10:08:09;;;;;;;;;;;;;;;24.63;52.97;100943.03;7389638;19;1571;-47
2023/08/21 10:10:38;;;;;;;;;;;;;;;24.59;52.96;100950.63;7392091;19;1277;-45
2023/08/21 10:13:07;;;;;;;;;;;;;;;24.57;53.43;100940.00;7394294;19;1837;-44
2023/08/21 10:15:39;;;;;;;;;;;;;;;24.78;52.66;100933.22;7395703;19;1458;-45
2023/08/21 10:18:23;;;;;;;;;;;;;;;24.58;52.79;100921.91;7395444;19;1957;-44
2023/08/21 10:20:52;;;;;;;;;;;;;;;24.74;53.07;100923.75;7395239;19;1814;-45
2023/08/21 10:23:27;;;;;;;;;;;;;;;25.03;52.25;100920.53;7393831;19;1386;-44
2023/08/21 10:25:59;;;;;;;;;;;;;;;24.97;52.69;100915.81;7395898;19;979;-44
2023/08/21 10:28:27;;;;;;;;;;;;;;;25.05;52.89;100926.63;7395347;19;1190;-43
2023/08/21 10:30:58;;;;;;;;;;;;;;;24.87;53.45;100913.28;7395623;19;1433;-43
2023/08/21 10:33:41;;;;;;;;;;;;;;;24.44;55.20;100900.94;7394455;19;1854;-44
2023/08/21 10:36:12;;;;;;;;;;;;;;;24.12;54.92;100903.41;7394931;19;1635;-44
2023/08/21 10:39:01;;;;;;;;;;;;;;;24.17;54.51;100906.47;7394403;19;1588;-44
2023/08/21 10:41:29;;;;;;;;;;;;;;;24.19;54.25;100893.63;7394596;19;1513;-44
2023/08/21 10:43:57;;;;;;;;;;;;;;;24.20;54.75;100895.31;7400912;19;1498;-45
2023/08/21 10:46:28;;;;;;;;;;;;;;;24.25;55.01;100907.47;7401116;19;1479;-44
2023/08/21 10:48:56;;;;;;;;;;;;;;;24.20;55.66;100906.13;7399885;19;1533;-45
2023/08/21 10:51:25;;;;;;;;;;;;;;;24.25;55.94;100897.50;7399585;19;1071;-45
2023/08/21 10:53:53;;;;;;;;;;;;;;;24.31;56.39;100877.94;7396402;19;1853;-44
2023/08/21 10:56:21;;;;;;;;;;;;;;;24.20;56.90;100879.09;7397346;19;1474;-44
2023/08/21 10:58:51;;;;;;;;;;;;;;;24.28;57.37;100882.84;7398280;19;1035;-43
2023/08/21 11:01:19;;;;;;;;;;;;;;;24.27;57.51;100895.47;7398009;19;1299;-44
2023/08/21 11:03:52;;;;;;;;;;;;;;;24.29;57.57;100893.50;7401021;19;1273;-46
2023/08/21 11:06:22;;;;;;;;;;;;;;;24.31;57.46;100893.28;7400501;19;1338;-46
2023/08/21 11:08:50;;;;;;;;;;;;;;;24.30;57.69;100868.13;7402022;19;1333;-45
2023/08/21 11:11:19;;;;;;;;;;;;;;;24.19;58.09;100881.97;7401125;19;1670;-46
2023/08/21 11:13:54;;;;;;;;;;;;;;;24.14;57.71;100863.56;7399826;19;1846;-46
2023/08/21 11:16:23;;;;;;;;;;;;;;;24.12;57.36;100872.84;7403233;19;1581;-45
2023/08/21 11:18:54;;;;;;;;;;;;;;;24.10;57.50;100875.72;7402713;19;1383;-44
2023/08/21 11:21:22;;;;;;;;;;;;;;;24.07;57.21;100877.91;7402868;19;1047;-43
2023/08/21 11:23:50;;;;;;;;;;;;;;;24.12;56.91;100868.28;7401073;19;1789;-45
2023/08/21 11:26:18;;;;;;;;;;;;;;;24.11;56.70;100872.00;7402170;19;1039;-44
2023/08/21 11:28:46;;;;;;;;;;;;;;;24.12;56.99;100865.59;7401200;19;1643;-44
2023/08/21 11:31:15;;;;;;;;;;;;;;;24.07;57.32;100856.28;7401368;19;1699;-44
2023/08/21 11:33:43;;;;;;;;;;;;;;;24.01;57.64;100847.00;7400419;19;1845;-44
2023/08/21 11:36:14;;;;;;;;;;;;;;;24.04;58.07;100862.03;7400649;19;1587;-45
2023/08/21 11:38:42;;;;;;;;;;;;;;;24.10;58.30;100847.88;7400905;19;1606;-45
2023/08/21 11:41:10;;;;;;;;;;;;;;;24.07;58.45;100850.88;7399590;19;1392;-45
2023/08/21 11:43:39;;;;;;;;;;;;;;;23.99;58.87;100860.69;7401745;19;1672;-44
2023/08/21 11:46:08;;;;;;;;;;;;;;;24.03;59.15;100858.47;7401586;19;1663;-45
2023/08/21 11:48:38;;;;;;;;;;;;;;;24.08;59.32;100848.03;7401386;19;1403;-45
2023/08/21 11:51:06;;;;;;;;;;;;;;;24.09;59.50;100838.88;7402006;19;1133;-45
2023/08/21 11:53:38;;;;;;;;;;;;;;;24.13;59.35;100840.28;7397901;19;1854;-44
2023/08/21 11:56:11;;;;;;;;;;;;;;;24.13;59.53;100842.09;7399185;19;1568;-44
2023/08/21 11:58:40;;;;;;;;;;;;;;;24.05;59.96;100842.94;7402142;19;1066;-45
2023/08/21 12:01:09;;;;;;;;;;;;;;;24.10;59.69;100846.00;7399847;19;1515;-45
2023/08/21 12:03:41;;;;;;;;;;;;;;;24.17;59.36;100841.63;7400511;19;1390;-44
2023/08/21 12:06:10;;;;;;;;;;;;;;;24.14;59.88;100841.13;7400116;19;1528;-45
2023/08/21 12:08:41;;;;;;;;;;;;;;;24.14;59.55;100831.13;7400956;19;1865;-44
2023/08/21 12:11:10;;;;;;;;;;;;;;;24.07;59.43;100830.09;7399311;19;1587;-45
2023/08/21 12:13:40;;;;;;;;;;;;;;;24.12;59.22;100849.38;7399567;19;1865;-45
2023/08/21 12:16:08;;;;;;;;;;;;;;;24.12;58.86;100841.28;7400814;19;1549;-45
2023/08/21 12:18:36;;;;;;;;;;;;;;;24.11;58.77;100831.47;7400032;19;1651;-45
2023/08/21 12:21:06;;;;;;;;;;;;;;;24.11;58.56;100839.56;7401562;19;1118;-45
2023/08/21 12:23:35;;;;;;;;;;;;;;;24.08;58.75;100826.41;7398851;19;1755;-45
2023/08/21 12:26:06;;;;;;;;;;;;;;;24.07;58.85;100829.28;7401931;19;1137;-45
2023/08/21 12:28:34;;;;;;;;;;;;;;;24.13;58.85;100837.56;7399349;19;1695;-45
2023/08/21 12:31:02;;;;;;;;;;;;;;;24.14;59.11;100822.19;7400194;19;1647;-45
2023/08/21 12:33:30;;;;;;;;;;;;;;;24.18;58.84;100821.69;7399612;19;1845;-44
2023/08/21 12:35:59;;;;;;;;;;;;;;;24.07;58.70;100832.81;7402089;19;1000;-45
2023/08/21 12:38:28;;;;;;;;;;;;;;;24.01;58.20;100815.44;7399670;19;1523;-45
2023/08/21 12:40:57;;;;;;;;;;;;;;;23.91;58.07;100819.28;7399872;19;1386;-45
2023/08/21 12:43:28;;;;;;;;;;;;;;;23.93;57.69;100831.63;7399520;19;1711;-45
2023/08/21 12:45:56;;;;;;;;;;;;;;;23.98;57.75;100831.13;7400347;19;1384;-44
2023/08/21 12:48:24;;;;;;;;;;;;;;;24.00;58.42;100835.34;7400285;19;1701;-45
2023/08/21 12:50:53;;;;;;;;;;;;;;;24.06;58.54;100822.19;7400277;19;1580;-45
2023/08/21 12:53:21;;;;;;;;;;;;;;;23.97;58.83;100807.81;7397396;19;1845;-45
2023/08/21 12:55:49;;;;;;;;;;;;;;;23.97;59.16;100815.91;7399879;19;1569;-44
2023/08/21 12:58:18;;;;;;;;;;;;;;;24.02;58.69;100816.28;7398121;19;935;-45